sensor_id;sensor_type;location;lat;lon;timestamp;P1;durP1;ratioP1;P2;durP2;ratioP2
16242;SDS011;11719;51.052;6.982;2023-03-05T00:01:11;0.30;;;0.30;;
16242;SDS011;11719;51.052;6.982;2023-03-05T00:03:43;1.80;;;0.70;;
16242;SDS011;11719;51.052;6.982;2023-03-05T00:06:10;2.10;;;0.67;;
16242;SDS011;11719;51.052;6.982;2023-03-05T00:08:36;5.00;;;1.03;;
16242;SDS011;11719;51.052;6.982;2023-03-05T00:11:04;1.50;;;0.47;;
16242;SDS011;11719;51.052;6.982;2023-03-05T00:13:34;2.67;;;0.37;;
16242;SDS011;11719;51.052;6.982;2023-03-05T00:16:04;3.80;;;0.77;;
16242;SDS011;11719;51.052;6.982;2023-03-05T00:18:35;0.23;;;0.20;;
16242;SDS011;11719;51.052;6.982;2023-03-05T00:21:01;1.67;;;0.50;;
16242;SDS011;11719;51.052;6.982;2023-03-05T00:23:28;18.13;;;0.70;;
16242;SDS011;11719;51.052;6.982;2023-03-05T00:25:53;0.77;;;0.33;;
16242;SDS011;11719;51.052;6.982;2023-03-05T00:28:19;7.87;;;0.40;;
16242;SDS011;11719;51.052;6.982;2023-03-05T00:30:45;2.77;;;0.50;;
16242;SDS011;11719;51.052;6.982;2023-03-05T00:33:12;1.93;;;0.30;;
16242;SDS011;11719;51.052;6.982;2023-03-05T00:35:42;0.73;;;0.30;;
16242;SDS011;11719;51.052;6.982;2023-03-05T00:38:10;3.37;;;0.83;;
16242;SDS011;11719;51.052;6.982;2023-03-05T00:40:37;0.30;;;0.20;;
16242;SDS011;11719;51.052;6.982;2023-03-05T00:43:05;2.13;;;0.73;;
16242;SDS011;11719;51.052;6.982;2023-03-05T00:45:32;0.87;;;0.43;;
16242;SDS011;11719;51.052;6.982;2023-03-05T00:47:58;0.20;;;0.20;;
16242;SDS011;11719;51.052;6.982;2023-03-05T00:50:24;0.60;;;0.20;;
16242;SDS011;11719;51.052;6.982;2023-03-05T00:52:50;0.80;;;0.30;;
16242;SDS011;11719;51.052;6.982;2023-03-05T00:55:16;1.27;;;0.80;;
16242;SDS011;11719;51.052;6.982;2023-03-05T00:57:42;1.73;;;0.47;;
16242;SDS011;11719;51.052;6.982;2023-03-05T01:00:08;4.43;;;0.40;;
16242;SDS011;11719;51.052;6.982;2023-03-05T01:02:34;3.70;;;0.87;;
16242;SDS011;11719;51.052;6.982;2023-03-05T01:05:00;8.73;;;0.87;;
16242;SDS011;11719;51.052;6.982;2023-03-05T01:07:26;13.00;;;0.97;;
16242;SDS011;11719;51.052;6.982;2023-03-05T01:09:52;2.67;;;0.40;;
16242;SDS011;11719;51.052;6.982;2023-03-05T01:12:18;0.63;;;0.50;;
16242;SDS011;11719;51.052;6.982;2023-03-05T01:14:43;4.00;;;0.60;;
16242;SDS011;11719;51.052;6.982;2023-03-05T01:17:09;3.37;;;0.87;;
16242;SDS011;11719;51.052;6.982;2023-03-05T01:19:35;4.23;;;0.87;;
16242;SDS011;11719;51.052;6.982;2023-03-05T01:22:00;5.93;;;0.63;;
16242;SDS011;11719;51.052;6.982;2023-03-05T01:24:27;0.70;;;0.37;;
16242;SDS011;11719;51.052;6.982;2023-03-05T01:26:54;1.13;;;0.50;;
16242;SDS011;11719;51.052;6.982;2023-03-05T01:29:20;0.73;;;0.40;;
16242;SDS011;11719;51.052;6.982;2023-03-05T01:31:47;1.33;;;0.40;;
16242;SDS011;11719;51.052;6.982;2023-03-05T01:34:13;2.77;;;0.70;;
16242;SDS011;11719;51.052;6.982;2023-03-05T01:36:40;1.43;;;0.73;;
16242;SDS011;11719;51.052;6.982;2023-03-05T01:39:06;4.27;;;0.30;;
16242;SDS011;11719;51.052;6.982;2023-03-05T01:41:33;5.80;;;0.70;;
16242;SDS011;11719;51.052;6.982;2023-03-05T01:43:59;0.97;;;0.57;;
16242;SDS011;11719;51.052;6.982;2023-03-05T01:46:32;4.13;;;0.60;;
16242;SDS011;11719;51.052;6.982;2023-03-05T01:51:50;5.50;;;0.53;;
16242;SDS011;11719;51.052;6.982;2023-03-05T01:54:35;0.67;;;0.50;;
16242;SDS011;11719;51.052;6.982;2023-03-05T01:57:06;0.20;;;0.10;;
16242;SDS011;11719;51.052;6.982;2023-03-05T01:59:39;4.57;;;0.80;;
16242;SDS011;11719;51.052;6.982;2023-03-05T02:02:08;0.97;;;0.40;;
16242;SDS011;11719;51.052;6.982;2023-03-05T02:04:40;3.83;;;0.33;;
16242;SDS011;11719;51.052;6.982;2023-03-05T02:07:11;2.80;;;0.80;;
16242;SDS011;11719;51.052;6.982;2023-03-05T02:09:38;1.37;;;0.60;;
16242;SDS011;11719;51.052;6.982;2023-03-05T02:12:05;0.63;;;0.43;;
16242;SDS011;11719;51.052;6.982;2023-03-05T02:14:33;3.53;;;0.70;;
16242;SDS011;11719;51.052;6.982;2023-03-05T02:16:59;3.80;;;0.90;;
16242;SDS011;11719;51.052;6.982;2023-03-05T02:19:25;0.60;;;0.40;;
16242;SDS011;11719;51.052;6.982;2023-03-05T02:21:51;0.63;;;0.30;;
16242;SDS011;11719;51.052;6.982;2023-03-05T02:24:18;3.60;;;0.37;;
16242;SDS011;11719;51.052;6.982;2023-03-05T02:26:59;1.43;;;0.30;;
16242;SDS011;11719;51.052;6.982;2023-03-05T02:29:27;2.27;;;0.70;;
16242;SDS011;11719;51.052;6.982;2023-03-05T02:31:54;1.73;;;0.30;;
16242;SDS011;11719;51.052;6.982;2023-03-05T02:34:21;1.33;;;0.40;;
16242;SDS011;11719;51.052;6.982;2023-03-05T02:36:47;3.50;;;0.70;;
16242;SDS011;11719;51.052;6.982;2023-03-05T02:39:14;0.30;;;0.30;;
16242;SDS011;11719;51.052;6.982;2023-03-05T02:41:41;0.43;;;0.30;;
16242;SDS011;11719;51.052;6.982;2023-03-05T02:44:07;0.20;;;0.20;;
16242;SDS011;11719;51.052;6.982;2023-03-05T02:46:33;0.60;;;0.20;;
16242;SDS011;11719;51.052;6.982;2023-03-05T02:48:59;1.03;;;0.50;;
16242;SDS011;11719;51.052;6.982;2023-03-05T02:51:25;1.33;;;0.70;;
16242;SDS011;11719;51.052;6.982;2023-03-05T02:53:52;1.83;;;0.53;;
16242;SDS011;11719;51.052;6.982;2023-03-05T02:56:17;0.83;;;0.30;;
16242;SDS011;11719;51.052;6.982;2023-03-05T02:58:43;2.67;;;0.43;;
16242;SDS011;11719;51.052;6.982;2023-03-05T03:01:09;3.33;;;0.87;;
16242;SDS011;11719;51.052;6.982;2023-03-05T03:03:35;5.73;;;0.67;;
16242;SDS011;11719;51.052;6.982;2023-03-05T03:06:01;2.40;;;0.50;;
16242;SDS011;11719;51.052;6.982;2023-03-05T03:08:28;1.10;;;0.60;;
16242;SDS011;11719;51.052;6.982;2023-03-05T03:10:53;0.73;;;0.70;;
16242;SDS011;11719;51.052;6.982;2023-03-05T03:13:20;6.23;;;0.70;;
16242;SDS011;11719;51.052;6.982;2023-03-05T03:15:48;7.90;;;0.70;;
16242;SDS011;11719;51.052;6.982;2023-03-05T03:18:14;1.40;;;0.57;;
16242;SDS011;11719;51.052;6.982;2023-03-05T03:20:40;2.53;;;0.60;;
16242;SDS011;11719;51.052;6.982;2023-03-05T03:23:06;0.43;;;0.23;;
16242;SDS011;11719;51.052;6.982;2023-03-05T03:25:32;2.00;;;0.63;;
16242;SDS011;11719;51.052;6.982;2023-03-05T03:27:58;2.57;;;0.67;;
16242;SDS011;11719;51.052;6.982;2023-03-05T03:30:24;0.63;;;0.43;;
16242;SDS011;11719;51.052;6.982;2023-03-05T03:32:50;0.97;;;0.70;;
16242;SDS011;11719;51.052;6.982;2023-03-05T03:35:17;2.00;;;0.37;;
16242;SDS011;11719;51.052;6.982;2023-03-05T03:37:43;1.10;;;0.63;;
16242;SDS011;11719;51.052;6.982;2023-03-05T03:40:09;2.53;;;0.30;;
16242;SDS011;11719;51.052;6.982;2023-03-05T03:42:36;3.87;;;0.50;;
16242;SDS011;11719;51.052;6.982;2023-03-05T03:45:02;1.47;;;0.83;;
16242;SDS011;11719;51.052;6.982;2023-03-05T03:47:29;1.07;;;0.50;;
16242;SDS011;11719;51.052;6.982;2023-03-05T03:49:55;0.40;;;0.40;;
16242;SDS011;11719;51.052;6.982;2023-03-05T03:52:22;0.43;;;0.27;;
16242;SDS011;11719;51.052;6.982;2023-03-05T03:54:48;1.30;;;0.13;;
16242;SDS011;11719;51.052;6.982;2023-03-05T03:57:17;1.90;;;0.57;;
16242;SDS011;11719;51.052;6.982;2023-03-05T03:59:42;1.00;;;0.40;;
16242;SDS011;11719;51.052;6.982;2023-03-05T04:02:10;0.80;;;0.37;;
16242;SDS011;11719;51.052;6.982;2023-03-05T04:04:36;1.20;;;0.40;;
16242;SDS011;11719;51.052;6.982;2023-03-05T04:07:01;0.10;;;0.10;;
16242;SDS011;11719;51.052;6.982;2023-03-05T04:09:27;0.47;;;0.33;;
16242;SDS011;11719;51.052;6.982;2023-03-05T04:11:53;0.40;;;0.20;;
16242;SDS011;11719;51.052;6.982;2023-03-05T04:14:20;2.80;;;0.30;;
16242;SDS011;11719;51.052;6.982;2023-03-05T04:16:46;2.33;;;0.50;;
16242;SDS011;11719;51.052;6.982;2023-03-05T04:19:11;2.00;;;0.37;;
16242;SDS011;11719;51.052;6.982;2023-03-05T04:21:37;3.20;;;0.70;;
16242;SDS011;11719;51.052;6.982;2023-03-05T04:24:04;5.00;;;0.70;;
16242;SDS011;11719;51.052;6.982;2023-03-05T04:26:30;0.27;;;0.27;;
16242;SDS011;11719;51.052;6.982;2023-03-05T04:28:56;0.80;;;0.63;;
16242;SDS011;11719;51.052;6.982;2023-03-05T04:31:22;2.00;;;0.50;;
16242;SDS011;11719;51.052;6.982;2023-03-05T04:33:47;6.17;;;0.77;;
16242;SDS011;11719;51.052;6.982;2023-03-05T04:36:13;0.50;;;0.30;;
16242;SDS011;11719;51.052;6.982;2023-03-05T04:38:39;0.40;;;0.30;;
16242;SDS011;11719;51.052;6.982;2023-03-05T04:41:05;1.00;;;0.40;;
16242;SDS011;11719;51.052;6.982;2023-03-05T04:43:32;3.70;;;0.60;;
16242;SDS011;11719;51.052;6.982;2023-03-05T04:45:58;0.30;;;0.20;;
16242;SDS011;11719;51.052;6.982;2023-03-05T04:48:23;0.00;;;0.00;;
16242;SDS011;11719;51.052;6.982;2023-03-05T04:50:49;0.13;;;0.13;;
16242;SDS011;11719;51.052;6.982;2023-03-05T04:53:15;1.00;;;0.10;;
16242;SDS011;11719;51.052;6.982;2023-03-05T04:55:41;0.10;;;0.00;;
16242;SDS011;11719;51.052;6.982;2023-03-05T04:58:07;0.20;;;0.20;;
16242;SDS011;11719;51.052;6.982;2023-03-05T05:00:34;3.17;;;0.40;;
16242;SDS011;11719;51.052;6.982;2023-03-05T05:02:59;1.10;;;0.20;;
16242;SDS011;11719;51.052;6.982;2023-03-05T05:05:26;0.70;;;0.10;;
16242;SDS011;11719;51.052;6.982;2023-03-05T05:07:53;0.10;;;0.10;;
16242;SDS011;11719;51.052;6.982;2023-03-05T05:10:22;1.30;;;0.30;;
16242;SDS011;11719;51.052;6.982;2023-03-05T05:12:49;0.70;;;0.70;;
16242;SDS011;11719;51.052;6.982;2023-03-05T05:15:15;0.40;;;0.20;;
16242;SDS011;11719;51.052;6.982;2023-03-05T05:17:41;2.20;;;0.63;;
16242;SDS011;11719;51.052;6.982;2023-03-05T05:20:07;1.07;;;0.20;;
16242;SDS011;11719;51.052;6.982;2023-03-05T05:22:35;0.50;;;0.20;;
16242;SDS011;11719;51.052;6.982;2023-03-05T05:25:02;1.30;;;0.10;;
16242;SDS011;11719;51.052;6.982;2023-03-05T05:27:29;0.93;;;0.30;;
16242;SDS011;11719;51.052;6.982;2023-03-05T05:29:55;0.30;;;0.30;;
16242;SDS011;11719;51.052;6.982;2023-03-05T05:32:21;0.80;;;0.50;;
16242;SDS011;11719;51.052;6.982;2023-03-05T05:34:52;1.17;;;0.40;;
16242;SDS011;11719;51.052;6.982;2023-03-05T05:37:22;1.70;;;0.20;;
16242;SDS011;11719;51.052;6.982;2023-03-05T05:39:49;1.40;;;0.30;;
16242;SDS011;11719;51.052;6.982;2023-03-05T05:42:19;1.40;;;0.30;;
16242;SDS011;11719;51.052;6.982;2023-03-05T05:44:47;1.53;;;0.30;;
16242;SDS011;11719;51.052;6.982;2023-03-05T05:47:14;3.60;;;0.67;;
16242;SDS011;11719;51.052;6.982;2023-03-05T05:49:41;0.70;;;0.43;;
16242;SDS011;11719;51.052;6.982;2023-03-05T05:52:07;1.90;;;0.40;;
16242;SDS011;11719;51.052;6.982;2023-03-05T05:54:33;1.07;;;0.40;;
16242;SDS011;11719;51.052;6.982;2023-03-05T05:56:59;4.07;;;0.40;;
16242;SDS011;11719;51.052;6.982;2023-03-05T05:59:25;4.10;;;0.50;;
16242;SDS011;11719;51.052;6.982;2023-03-05T06:01:51;0.57;;;0.30;;
16242;SDS011;11719;51.052;6.982;2023-03-05T06:04:17;1.17;;;0.37;;
16242;SDS011;11719;51.052;6.982;2023-03-05T06:06:42;1.40;;;0.83;;
16242;SDS011;11719;51.052;6.982;2023-03-05T06:09:08;1.80;;;0.37;;
16242;SDS011;11719;51.052;6.982;2023-03-05T06:11:34;2.13;;;0.60;;
16242;SDS011;11719;51.052;6.982;2023-03-05T06:14:02;0.57;;;0.30;;
16242;SDS011;11719;51.052;6.982;2023-03-05T06:16:28;1.57;;;0.60;;
16242;SDS011;11719;51.052;6.982;2023-03-05T06:18:54;2.53;;;0.60;;
16242;SDS011;11719;51.052;6.982;2023-03-05T06:21:20;1.40;;;0.63;;
16242;SDS011;11719;51.052;6.982;2023-03-05T06:23:47;4.53;;;0.60;;
16242;SDS011;11719;51.052;6.982;2023-03-05T06:26:15;4.03;;;1.07;;
16242;SDS011;11719;51.052;6.982;2023-03-05T06:28:44;2.80;;;0.63;;
16242;SDS011;11719;51.052;6.982;2023-03-05T06:31:11;2.30;;;1.07;;
16242;SDS011;11719;51.052;6.982;2023-03-05T06:33:40;1.23;;;0.83;;
16242;SDS011;11719;51.052;6.982;2023-03-05T06:36:08;1.00;;;0.57;;
16242;SDS011;11719;51.052;6.982;2023-03-05T06:38:37;1.83;;;0.97;;
16242;SDS011;11719;51.052;6.982;2023-03-05T06:41:04;1.13;;;0.43;;
16242;SDS011;11719;51.052;6.982;2023-03-05T06:43:36;0.53;;;0.37;;
16242;SDS011;11719;51.052;6.982;2023-03-05T06:46:06;1.33;;;0.60;;
16242;SDS011;11719;51.052;6.982;2023-03-05T06:48:37;4.23;;;0.53;;
16242;SDS011;11719;51.052;6.982;2023-03-05T06:51:11;1.87;;;0.70;;
16242;SDS011;11719;51.052;6.982;2023-03-05T06:53:39;0.63;;;0.40;;
16242;SDS011;11719;51.052;6.982;2023-03-05T06:56:05;0.77;;;0.57;;
16242;SDS011;11719;51.052;6.982;2023-03-05T06:58:31;1.17;;;0.53;;
16242;SDS011;11719;51.052;6.982;2023-03-05T07:00:56;0.50;;;0.50;;
16242;SDS011;11719;51.052;6.982;2023-03-05T07:03:22;0.27;;;0.23;;
16242;SDS011;11719;51.052;6.982;2023-03-05T07:05:48;2.70;;;0.60;;
16242;SDS011;11719;51.052;6.982;2023-03-05T07:08:14;3.20;;;1.13;;
16242;SDS011;11719;51.052;6.982;2023-03-05T07:10:41;1.07;;;0.30;;
16242;SDS011;11719;51.052;6.982;2023-03-05T07:13:08;2.63;;;0.93;;
16242;SDS011;11719;51.052;6.982;2023-03-05T07:15:36;0.40;;;0.40;;
16242;SDS011;11719;51.052;6.982;2023-03-05T07:18:04;1.13;;;0.63;;
16242;SDS011;11719;51.052;6.982;2023-03-05T07:20:33;0.87;;;0.60;;
16242;SDS011;11719;51.052;6.982;2023-03-05T07:23:00;1.57;;;0.50;;
16242;SDS011;11719;51.052;6.982;2023-03-05T07:25:26;5.10;;;0.33;;
16242;SDS011;11719;51.052;6.982;2023-03-05T07:27:51;1.63;;;0.50;;
16242;SDS011;11719;51.052;6.982;2023-03-05T07:30:17;3.50;;;1.03;;
16242;SDS011;11719;51.052;6.982;2023-03-05T07:32:43;1.70;;;0.30;;
16242;SDS011;11719;51.052;6.982;2023-03-05T07:35:09;1.80;;;0.60;;
16242;SDS011;11719;51.052;6.982;2023-03-05T07:37:35;0.93;;;0.43;;
16242;SDS011;11719;51.052;6.982;2023-03-05T07:40:00;1.87;;;0.73;;
16242;SDS011;11719;51.052;6.982;2023-03-05T07:42:26;3.70;;;0.83;;
16242;SDS011;11719;51.052;6.982;2023-03-05T07:44:52;1.53;;;0.90;;
16242;SDS011;11719;51.052;6.982;2023-03-05T07:47:18;1.70;;;0.90;;
16242;SDS011;11719;51.052;6.982;2023-03-05T07:49:44;3.03;;;0.90;;
16242;SDS011;11719;51.052;6.982;2023-03-05T07:52:10;4.83;;;0.60;;
16242;SDS011;11719;51.052;6.982;2023-03-05T07:54:38;1.00;;;0.80;;
16242;SDS011;11719;51.052;6.982;2023-03-05T07:57:05;2.93;;;0.70;;
16242;SDS011;11719;51.052;6.982;2023-03-05T07:59:32;3.13;;;1.30;;
16242;SDS011;11719;51.052;6.982;2023-03-05T08:01:59;0.93;;;0.63;;
16242;SDS011;11719;51.052;6.982;2023-03-05T08:04:25;3.87;;;1.20;;
16242;SDS011;11719;51.052;6.982;2023-03-05T08:06:50;3.40;;;1.07;;
16242;SDS011;11719;51.052;6.982;2023-03-05T08:09:17;3.53;;;0.80;;
16242;SDS011;11719;51.052;6.982;2023-03-05T08:11:44;1.63;;;0.70;;
16242;SDS011;11719;51.052;6.982;2023-03-05T08:14:10;0.97;;;0.80;;
16242;SDS011;11719;51.052;6.982;2023-03-05T08:16:37;1.30;;;0.70;;
16242;SDS011;11719;51.052;6.982;2023-03-05T08:19:04;4.27;;;0.83;;
16242;SDS011;11719;51.052;6.982;2023-03-05T08:21:30;2.20;;;0.90;;
16242;SDS011;11719;51.052;6.982;2023-03-05T08:24:03;0.93;;;0.80;;
16242;SDS011;11719;51.052;6.982;2023-03-05T08:26:32;1.03;;;0.80;;
16242;SDS011;11719;51.052;6.982;2023-03-05T08:29:01;3.10;;;1.00;;
16242;SDS011;11719;51.052;6.982;2023-03-05T08:31:27;2.33;;;1.10;;
16242;SDS011;11719;51.052;6.982;2023-03-05T08:33:57;1.03;;;0.60;;
16242;SDS011;11719;51.052;6.982;2023-03-05T08:36:25;2.00;;;1.00;;
16242;SDS011;11719;51.052;6.982;2023-03-05T08:38:52;1.60;;;0.80;;
16242;SDS011;11719;51.052;6.982;2023-03-05T08:41:18;1.40;;;1.20;;
16242;SDS011;11719;51.052;6.982;2023-03-05T08:43:44;2.87;;;0.80;;
16242;SDS011;11719;51.052;6.982;2023-03-05T08:46:11;3.77;;;0.80;;
16242;SDS011;11719;51.052;6.982;2023-03-05T08:48:38;5.00;;;0.97;;
16242;SDS011;11719;51.052;6.982;2023-03-05T08:51:08;1.93;;;1.30;;
16242;SDS011;11719;51.052;6.982;2023-03-05T08:53:37;4.23;;;0.90;;
16242;SDS011;11719;51.052;6.982;2023-03-05T08:56:03;1.43;;;0.70;;
16242;SDS011;11719;51.052;6.982;2023-03-05T08:58:29;1.43;;;0.53;;
16242;SDS011;11719;51.052;6.982;2023-03-05T09:00:55;2.40;;;0.97;;
16242;SDS011;11719;51.052;6.982;2023-03-05T09:03:21;1.47;;;0.70;;
16242;SDS011;11719;51.052;6.982;2023-03-05T09:05:47;0.57;;;0.50;;
16242;SDS011;11719;51.052;6.982;2023-03-05T09:08:13;2.63;;;0.83;;
16242;SDS011;11719;51.052;6.982;2023-03-05T09:10:42;1.90;;;0.80;;
16242;SDS011;11719;51.052;6.982;2023-03-05T09:13:09;1.03;;;0.70;;
16242;SDS011;11719;51.052;6.982;2023-03-05T09:15:35;1.10;;;0.63;;
16242;SDS011;11719;51.052;6.982;2023-03-05T09:18:02;2.93;;;0.87;;
16242;SDS011;11719;51.052;6.982;2023-03-05T09:20:28;1.80;;;0.53;;
16242;SDS011;11719;51.052;6.982;2023-03-05T09:22:54;1.40;;;0.93;;
16242;SDS011;11719;51.052;6.982;2023-03-05T09:25:19;2.67;;;1.00;;
16242;SDS011;11719;51.052;6.982;2023-03-05T09:27:45;1.17;;;0.70;;
16242;SDS011;11719;51.052;6.982;2023-03-05T09:30:12;6.07;;;1.17;;
16242;SDS011;11719;51.052;6.982;2023-03-05T09:32:38;2.17;;;0.60;;
16242;SDS011;11719;51.052;6.982;2023-03-05T09:35:04;2.23;;;1.20;;
16242;SDS011;11719;51.052;6.982;2023-03-05T09:37:31;2.43;;;0.60;;
16242;SDS011;11719;51.052;6.982;2023-03-05T09:39:57;2.80;;;1.10;;
16242;SDS011;11719;51.052;6.982;2023-03-05T09:42:36;1.87;;;0.90;;
16242;SDS011;11719;51.052;6.982;2023-03-05T09:45:27;1.87;;;1.07;;
16242;SDS011;11719;51.052;6.982;2023-03-05T09:48:41;2.03;;;0.90;;
16242;SDS011;11719;51.052;6.982;2023-03-05T09:51:38;1.57;;;0.90;;
16242;SDS011;11719;51.052;6.982;2023-03-05T09:54:15;2.17;;;1.20;;
16242;SDS011;11719;51.052;6.982;2023-03-05T09:56:46;5.43;;;1.50;;
16242;SDS011;11719;51.052;6.982;2023-03-05T10:01:51;4.43;;;1.53;;
16242;SDS011;11719;51.052;6.982;2023-03-05T10:07:43;1.30;;;0.80;;
16242;SDS011;11719;51.052;6.982;2023-03-05T10:10:24;1.17;;;0.80;;
16242;SDS011;11719;51.052;6.982;2023-03-05T10:13:22;0.90;;;0.83;;
16242;SDS011;11719;51.052;6.982;2023-03-05T10:19:01;1.83;;;0.80;;
16242;SDS011;11719;51.052;6.982;2023-03-05T10:22:17;1.73;;;1.13;;
16242;SDS011;11719;51.052;6.982;2023-03-05T10:27:50;1.53;;;1.10;;
16242;SDS011;11719;51.052;6.982;2023-03-05T10:30:30;2.17;;;1.40;;
16242;SDS011;11719;51.052;6.982;2023-03-05T10:50:18;3.63;;;1.53;;
16242;SDS011;11719;51.052;6.982;2023-03-05T10:55:43;1.43;;;1.27;;
16242;SDS011;11719;51.052;6.982;2023-03-05T10:58:13;3.40;;;2.03;;
16242;SDS011;11719;51.052;6.982;2023-03-05T11:00:56;5.90;;;2.40;;
16242;SDS011;11719;51.052;6.982;2023-03-05T11:03:22;6.57;;;2.80;;
16242;SDS011;11719;51.052;6.982;2023-03-05T11:05:58;2.90;;;2.00;;
16242;SDS011;11719;51.052;6.982;2023-03-05T11:16:22;3.43;;;2.13;;
16242;SDS011;11719;51.052;6.982;2023-03-05T11:21:40;4.43;;;2.50;;
16242;SDS011;11719;51.052;6.982;2023-03-05T11:24:13;4.50;;;2.47;;
16242;SDS011;11719;51.052;6.982;2023-03-05T11:26:49;4.33;;;2.77;;
16242;SDS011;11719;51.052;6.982;2023-03-05T11:29:29;2.43;;;1.50;;
16242;SDS011;11719;51.052;6.982;2023-03-05T11:34:53;3.67;;;1.80;;
16242;SDS011;11719;51.052;6.982;2023-03-05T11:37:22;4.57;;;2.60;;
16242;SDS011;11719;51.052;6.982;2023-03-05T11:40:06;2.67;;;1.87;;
16242;SDS011;11719;51.052;6.982;2023-03-05T11:42:45;10.00;;;2.73;;
16242;SDS011;11719;51.052;6.982;2023-03-05T11:45:21;2.70;;;2.10;;
16242;SDS011;11719;51.052;6.982;2023-03-05T11:47:49;7.87;;;2.27;;
16242;SDS011;11719;51.052;6.982;2023-03-05T11:50:22;5.57;;;3.10;;
16242;SDS011;11719;51.052;6.982;2023-03-05T11:52:51;7.33;;;3.37;;
16242;SDS011;11719;51.052;6.982;2023-03-05T11:55:27;4.93;;;3.00;;
16242;SDS011;11719;51.052;6.982;2023-03-05T12:00:44;11.10;;;4.30;;
16242;SDS011;11719;51.052;6.982;2023-03-05T12:03:16;4.97;;;3.10;;
16242;SDS011;11719;51.052;6.982;2023-03-05T12:05:50;3.87;;;3.13;;
16242;SDS011;11719;51.052;6.982;2023-03-05T12:08:41;7.93;;;3.43;;
16242;SDS011;11719;51.052;6.982;2023-03-05T12:11:23;3.57;;;2.30;;
16242;SDS011;11719;51.052;6.982;2023-03-05T12:13:54;3.03;;;2.03;;
16242;SDS011;11719;51.052;6.982;2023-03-05T12:16:50;1.63;;;1.07;;
16242;SDS011;11719;51.052;6.982;2023-03-05T12:22:15;2.00;;;1.47;;
16242;SDS011;11719;51.052;6.982;2023-03-05T12:27:58;2.87;;;2.10;;
16242;SDS011;11719;51.052;6.982;2023-03-05T12:33:00;2.73;;;1.90;;
16242;SDS011;11719;51.052;6.982;2023-03-05T12:35:28;2.57;;;1.87;;
16242;SDS011;11719;51.052;6.982;2023-03-05T12:38:03;2.83;;;1.83;;
16242;SDS011;11719;51.052;6.982;2023-03-05T12:41:12;3.83;;;2.10;;
16242;SDS011;11719;51.052;6.982;2023-03-05T12:46:29;2.90;;;2.20;;
16242;SDS011;11719;51.052;6.982;2023-03-05T12:51:54;2.47;;;1.93;;
16242;SDS011;11719;51.052;6.982;2023-03-05T12:54:23;3.73;;;2.43;;
16242;SDS011;11719;51.052;6.982;2023-03-05T12:57:00;4.67;;;1.93;;
16242;SDS011;11719;51.052;6.982;2023-03-05T12:59:39;2.70;;;1.77;;
16242;SDS011;11719;51.052;6.982;2023-03-05T13:04:57;1.93;;;1.37;;
16242;SDS011;11719;51.052;6.982;2023-03-05T13:07:28;4.73;;;1.37;;
16242;SDS011;11719;51.052;6.982;2023-03-05T13:09:55;1.87;;;1.23;;
16242;SDS011;11719;51.052;6.982;2023-03-05T13:12:24;1.77;;;1.00;;
16242;SDS011;11719;51.052;6.982;2023-03-05T13:15:06;1.27;;;1.00;;
16242;SDS011;11719;51.052;6.982;2023-03-05T13:17:40;3.10;;;1.00;;
16242;SDS011;11719;51.052;6.982;2023-03-05T13:20:36;2.57;;;1.07;;
16242;SDS011;11719;51.052;6.982;2023-03-05T13:23:15;3.97;;;1.27;;
16242;SDS011;11719;51.052;6.982;2023-03-05T13:29:02;1.10;;;1.00;;
16242;SDS011;11719;51.052;6.982;2023-03-05T13:31:45;1.53;;;1.13;;
16242;SDS011;11719;51.052;6.982;2023-03-05T13:34:17;2.67;;;0.93;;
16242;SDS011;11719;51.052;6.982;2023-03-05T13:37:01;2.23;;;1.10;;
16242;SDS011;11719;51.052;6.982;2023-03-05T13:39:36;1.97;;;0.90;;
16242;SDS011;11719;51.052;6.982;2023-03-05T13:42:18;2.90;;;1.30;;
16242;SDS011;11719;51.052;6.982;2023-03-05T13:44:56;1.43;;;1.10;;
16242;SDS011;11719;51.052;6.982;2023-03-05T13:47:49;1.13;;;0.83;;
16242;SDS011;11719;51.052;6.982;2023-03-05T13:50:22;0.87;;;0.80;;
16242;SDS011;11719;51.052;6.982;2023-03-05T13:55:56;0.83;;;0.73;;
16242;SDS011;11719;51.052;6.982;2023-03-05T14:01:42;0.87;;;0.87;;
16242;SDS011;11719;51.052;6.982;2023-03-05T14:09:26;0.67;;;0.67;;
16242;SDS011;11719;51.052;6.982;2023-03-05T14:14:48;1.27;;;1.17;;
16242;SDS011;11719;51.052;6.982;2023-03-05T14:22:49;1.00;;;0.73;;
16242;SDS011;11719;51.052;6.982;2023-03-05T14:28:04;1.90;;;1.20;;
16242;SDS011;11719;51.052;6.982;2023-03-05T14:30:50;1.33;;;1.00;;
16242;SDS011;11719;51.052;6.982;2023-03-05T14:33:23;2.30;;;1.57;;
16242;SDS011;11719;51.052;6.982;2023-03-05T14:35:54;1.87;;;0.90;;
16242;SDS011;11719;51.052;6.982;2023-03-05T14:38:25;1.53;;;1.07;;
16242;SDS011;11719;51.052;6.982;2023-03-05T14:40:54;1.03;;;1.00;;
16242;SDS011;11719;51.052;6.982;2023-03-05T14:43:21;2.33;;;1.50;;
16242;SDS011;11719;51.052;6.982;2023-03-05T14:45:47;2.87;;;2.03;;
16242;SDS011;11719;51.052;6.982;2023-03-05T14:48:14;1.90;;;1.00;;
16242;SDS011;11719;51.052;6.982;2023-03-05T14:53:17;2.67;;;1.10;;
16242;SDS011;11719;51.052;6.982;2023-03-05T14:55:50;2.57;;;1.60;;
16242;SDS011;11719;51.052;6.982;2023-03-05T14:58:22;2.57;;;1.43;;
16242;SDS011;11719;51.052;6.982;2023-03-05T15:00:51;1.87;;;1.43;;
16242;SDS011;11719;51.052;6.982;2023-03-05T15:03:20;1.77;;;1.30;;
16242;SDS011;11719;51.052;6.982;2023-03-05T15:05:47;1.50;;;1.40;;
16242;SDS011;11719;51.052;6.982;2023-03-05T15:08:17;3.87;;;1.40;;
16242;SDS011;11719;51.052;6.982;2023-03-05T15:10:51;2.17;;;1.40;;
16242;SDS011;11719;51.052;6.982;2023-03-05T15:13:17;2.27;;;1.77;;
16242;SDS011;11719;51.052;6.982;2023-03-05T15:15:44;2.73;;;1.70;;
16242;SDS011;11719;51.052;6.982;2023-03-05T15:18:11;2.77;;;1.30;;
16242;SDS011;11719;51.052;6.982;2023-03-05T15:20:39;2.17;;;1.97;;
16242;SDS011;11719;51.052;6.982;2023-03-05T15:23:05;5.70;;;2.43;;
16242;SDS011;11719;51.052;6.982;2023-03-05T15:25:31;2.87;;;2.00;;
16242;SDS011;11719;51.052;6.982;2023-03-05T15:27:56;3.57;;;2.10;;
16242;SDS011;11719;51.052;6.982;2023-03-05T15:30:26;4.60;;;2.20;;
16242;SDS011;11719;51.052;6.982;2023-03-05T15:33:02;3.07;;;2.20;;
16242;SDS011;11719;51.052;6.982;2023-03-05T15:35:32;2.13;;;1.17;;
16242;SDS011;11719;51.052;6.982;2023-03-05T15:37:58;2.87;;;1.70;;
16242;SDS011;11719;51.052;6.982;2023-03-05T15:40:24;7.27;;;2.03;;
16242;SDS011;11719;51.052;6.982;2023-03-05T15:42:54;7.07;;;3.20;;
16242;SDS011;11719;51.052;6.982;2023-03-05T15:45:21;2.37;;;1.77;;
16242;SDS011;11719;51.052;6.982;2023-03-05T15:47:48;2.93;;;2.10;;
16242;SDS011;11719;51.052;6.982;2023-03-05T15:50:16;5.80;;;2.43;;
16242;SDS011;11719;51.052;6.982;2023-03-05T15:52:42;3.47;;;2.10;;
16242;SDS011;11719;51.052;6.982;2023-03-05T15:55:08;2.00;;;1.73;;
16242;SDS011;11719;51.052;6.982;2023-03-05T15:57:35;3.10;;;1.93;;
16242;SDS011;11719;51.052;6.982;2023-03-05T16:00:06;2.17;;;1.17;;
16242;SDS011;11719;51.052;6.982;2023-03-05T16:02:33;3.33;;;1.70;;
16242;SDS011;11719;51.052;6.982;2023-03-05T16:04:59;1.87;;;1.20;;
16242;SDS011;11719;51.052;6.982;2023-03-05T16:07:25;2.23;;;1.50;;
16242;SDS011;11719;51.052;6.982;2023-03-05T16:09:51;4.27;;;1.60;;
16242;SDS011;11719;51.052;6.982;2023-03-05T16:12:22;4.00;;;1.20;;
16242;SDS011;11719;51.052;6.982;2023-03-05T16:14:51;3.60;;;1.60;;
16242;SDS011;11719;51.052;6.982;2023-03-05T16:17:17;2.60;;;1.53;;
16242;SDS011;11719;51.052;6.982;2023-03-05T16:19:45;2.47;;;1.87;;
16242;SDS011;11719;51.052;6.982;2023-03-05T16:22:17;2.90;;;2.33;;
16242;SDS011;11719;51.052;6.982;2023-03-05T16:24:43;2.43;;;2.00;;
16242;SDS011;11719;51.052;6.982;2023-03-05T16:27:09;3.57;;;2.10;;
16242;SDS011;11719;51.052;6.982;2023-03-05T16:29:35;3.70;;;2.70;;
16242;SDS011;11719;51.052;6.982;2023-03-05T16:32:01;4.73;;;2.40;;
16242;SDS011;11719;51.052;6.982;2023-03-05T16:34:29;3.13;;;1.80;;
16242;SDS011;11719;51.052;6.982;2023-03-05T16:36:56;2.50;;;1.73;;